Time;durP1;ratioP1;P1;durP2;ratioP2;P2;SDS_P1;SDS_P2;PMS_P1;PMS_P2;Temp;Humidity;BMP_temperature;BMP_pressure;BME280_temperature;BME280_humidity;BME280_pressure;Samples;Min_cycle;Max_cycle;Signal;HPM_P1;HPM_P2
2023/01/03 00:01:58;;;;;;;2.63;1.88;;;;;;;6.33;100.00;99370.09;4220220;27;20122;-73
2023/01/03 00:04:00;;;;;;;2.88;1.80;;;;;;;6.28;100.00;99373.00;4228313;27;20394;-74
2023/01/03 00:06:00;;;;;;;4.67;2.03;;;;;;;6.28;100.00;99373.00;4228081;27;20403;-73
2023/01/03 00:08:01;;;;;;;2.85;1.75;;;;;;;6.26;100.00;99378.03;4220344;27;20158;-74
2023/01/03 00:10:07;;;;;;;2.47;1.92;;;;;;;6.22;100.00;99377.09;4219399;27;20047;-74
2023/01/03 00:12:23;;;;;;;3.88;1.80;;;;;;;6.22;100.00;99371.59;4219544;27;20030;-73
2023/01/03 00:14:28;;;;;;;1.85;1.60;;;;;;;6.27;100.00;99389.81;4219760;27;20387;-73
2023/01/03 00:16:29;;;;;;;2.33;1.80;;;;;;;6.24;100.00;99382.25;4219425;27;20051;-73
2023/01/03 00:18:29;;;;;;;2.28;1.90;;;;;;;6.27;100.00;99379.63;4222421;27;20043;-73
2023/01/03 00:20:30;;;;;;;2.00;1.70;;;;;;;6.31;100.00;99374.31;4219792;27;20436;-73
2023/01/03 00:22:31;;;;;;;2.25;1.95;;;;;;;6.30;100.00;99386.44;4219252;27;20044;-73
2023/01/03 00:24:31;;;;;;;2.58;1.83;;;;;;;6.26;100.00;99383.53;4219857;27;20054;-73
2023/01/03 00:26:32;;;;;;;2.83;2.05;;;;;;;6.25;100.00;99378.38;4219595;27;20547;-73
2023/01/03 00:28:33;;;;;;;2.30;1.90;;;;;;;6.25;100.00;99384.66;4219733;27;20122;-74
2023/01/03 00:30:34;;;;;;;2.60;1.58;;;;;;;6.23;100.00;99380.63;4219917;27;20071;-73
2023/01/03 00:32:34;;;;;;;3.47;1.70;;;;;;;6.23;100.00;99386.94;4219880;27;20048;-73
2023/01/03 00:34:35;;;;;;;2.40;1.90;;;;;;;6.19;100.00;99389.50;4220996;27;20088;-73
2023/01/03 00:36:37;;;;;;;1.75;1.50;;;;;;;6.22;100.00;99401.00;4223637;27;20303;-73
2023/01/03 00:38:37;;;;;;;2.10;1.67;;;;;;;6.22;100.00;99398.25;4220694;27;20039;-73
2023/01/03 00:40:38;;;;;;;2.28;1.90;;;;;;;6.15;100.00;99404.25;4219340;27;20067;-73
2023/01/03 00:43:27;;;;;;;3.53;1.67;;;;;;;6.14;100.00;99403.44;4218796;27;20563;-73
2023/01/03 00:44:58;;;;;;;4.82;2.00;;;;;;;6.15;100.00;99412.50;4231358;27;20078;-73
2023/01/03 00:46:59;;;;;;;3.03;1.92;;;;;;;6.14;100.00;99411.69;4233891;27;20438;-73
2023/01/03 00:49:00;;;;;;;2.67;1.73;;;;;;;6.17;100.00;99419.28;4234923;27;20468;-73
2023/01/03 00:51:12;;;;;;;2.30;1.60;;;;;;;6.20;100.00;99415.06;4228617;27;20051;-73
2023/01/03 00:53:13;;;;;;;1.73;1.60;;;;;;;6.19;100.00;99421.69;4218977;27;20055;-73
2023/01/03 00:55:13;;;;;;;3.08;1.83;;;;;;;6.22;100.00;99421.06;4219420;27;20043;-73
2023/01/03 00:57:13;;;;;;;2.55;1.80;;;;;;;6.27;100.00;99425.56;4222766;27;20057;-74
2023/01/03 00:59:16;;;;;;;3.70;2.00;;;;;;;6.30;100.00;99427.66;4234881;27;20140;-73
2023/01/03 01:01:16;;;;;;;;;;;;;;;6.33;100.00;99429.75;4223791;27;20418;-73
2023/01/03 01:03:17;;;;;;;2.53;1.92;;;;;;;6.34;100.00;99434.13;4234631;27;19919;-73
2023/01/03 01:05:17;;;;;;;5.50;2.30;;;;;;;6.40;100.00;99436.38;4232194;27;20046;-74
2023/01/03 01:07:17;;;;;;;4.10;2.00;;;;;;;6.41;100.00;99426.19;4219293;27;20051;-73
2023/01/03 01:09:26;;;;;;;4.63;2.10;;;;;;;6.38;100.00;99435.91;4219635;27;20142;-73
2023/01/03 01:11:27;;;;;;;2.63;2.10;;;;;;;6.32;100.00;99436.38;4222272;27;20143;-73
2023/01/03 01:13:31;;;;;;;2.65;2.00;;;;;;;6.26;100.00;99446.72;4219851;27;20039;-73
2023/01/03 01:15:33;;;;;;;2.55;1.85;;;;;;;6.23;100.00;99447.41;4219637;27;20065;-73
2023/01/03 01:17:33;;;;;;;2.95;1.80;;;;;;;6.22;100.00;99445.78;4218899;27;20162;-73
2023/01/03 01:19:37;;;;;;;3.83;1.90;;;;;;;6.25;100.00;99442.38;4219002;27;20181;-73
2023/01/03 01:21:39;;;;;;;2.15;1.60;;;;;;;6.27;100.00;99453.03;4217441;28;20096;-73
2023/01/03 01:23:40;;;;;;;2.20;1.55;;;;;;;6.29;100.00;99450.75;4230306;27;20105;-73
2023/01/03 01:25:41;;;;;;;4.93;1.50;;;;;;;6.30;100.00;99453.22;4219965;27;20086;-73
2023/01/03 01:27:42;;;;;;;2.00;1.35;;;;;;;6.34;100.00;99458.84;4225178;27;20044;-73
2023/01/03 01:29:42;;;;;;;2.35;1.63;;;;;;;6.32;100.00;99455.63;4221274;27;20043;-73
2023/01/03 01:31:44;;;;;;;2.05;1.55;;;;;;;6.33;100.00;99462.75;4223968;27;20089;-73
2023/01/03 01:33:45;;;;;;;2.07;1.63;;;;;;;6.35;100.00;99466.75;4223677;27;20044;-73
2023/01/03 01:35:45;;;;;;;2.15;1.58;;;;;;;6.34;100.00;99456.91;4218794;27;20637;-73
2023/01/03 01:37:46;;;;;;;2.03;1.50;;;;;;;6.38;100.00;99462.59;4223048;27;20044;-73
2023/01/03 01:39:46;;;;;;;1.92;1.50;;;;;;;6.38;100.00;99468.06;4229076;27;20040;-73
2023/01/03 01:44:45;;;;;;;5.10;3.00;;;;;;;6.34;100.00;99484.41;4218010;27;20050;-73
2023/01/03 01:46:45;;;;;;;2.28;1.80;;;;;;;6.33;100.00;99480.03;4218633;27;20598;-73
2023/01/03 01:48:50;;;;;;;2.58;1.60;;;;;;;6.31;100.00;99471.31;4234257;27;20097;-73
2023/01/03 01:50:54;;;;;;;3.25;2.42;;;;;;;6.28;100.00;99479.38;4220185;27;20040;-73
2023/01/03 01:53:04;;;;;;;2.45;1.80;;;;;;;6.32;100.00;99483.13;4225545;27;20070;-73
2023/01/03 01:55:07;;;;;;;2.00;1.50;;;;;;;6.34;100.00;99478.91;4233172;27;20339;-73
2023/01/03 01:57:12;;;;;;;2.30;1.70;;;;;;;6.36;100.00;99478.56;4235297;27;20262;-73
2023/01/03 01:59:14;;;;;;;2.30;1.73;;;;;;;6.35;100.00;99488.75;4233773;27;20039;-73
2023/01/03 02:01:17;;;;;;;2.28;1.92;;;;;;;6.33;100.00;99482.78;4227203;27;20044;-73
2023/01/03 02:03:18;;;;;;;2.65;1.88;;;;;;;6.31;100.00;99482.31;4217496;27;20048;-73
2023/01/03 02:05:20;;;;;;;2.20;1.73;;;;;;;6.25;100.00;99494.59;4218750;27;20086;-73
2023/01/03 02:07:21;;;;;;;3.22;1.90;;;;;;;6.19;100.00;99501.38;4218405;27;20059;-73
2023/01/03 02:09:22;;;;;;;2.40;2.00;;;;;;;6.14;100.00;99494.13;4218379;27;20039;-73
2023/01/03 02:11:22;;;;;;;3.95;1.92;;;;;;;6.13;100.00;99492.50;4222718;27;20043;-74
2023/01/03 02:13:22;;;;;;;2.92;1.90;;;;;;;6.07;100.00;99498.47;4229740;28;20039;-73
2023/01/03 02:15:28;;;;;;;3.88;2.20;;;;;;;6.04;100.00;99499.94;4234063;27;20868;-73
2023/01/03 02:17:35;;;;;;;2.83;2.00;;;;;;;6.05;100.00;99503.50;4234091;27;20043;-73
2023/01/03 02:20:12;;;;;;;3.28;2.00;;;;;;;6.06;100.00;99505.13;4222490;27;20043;-74
2023/01/03 02:22:50;;;;;;;3.38;2.03;;;;;;;6.12;100.00;99495.56;4222320;27;20051;-73
2023/01/03 02:24:53;;;;;;;3.53;2.00;;;;;;;6.16;100.00;99496.53;4219776;27;20485;-74
2023/01/03 02:27:21;;;;;;;2.35;1.90;;;;;;;6.16;100.00;99504.78;4222014;27;20039;-73
2023/01/03 02:29:59;;;;;;;2.47;1.73;;;;;;;6.20;100.00;99498.31;4221790;27;20488;-74
2023/01/03 02:32:23;;;;;;;2.47;1.95;;;;;;;6.18;100.00;99495.06;4228439;27;20779;-74
2023/01/03 02:34:43;;;;;;;2.55;1.92;;;;;;;6.14;100.00;99501.56;4229935;27;20078;-73
2023/01/03 02:37:01;;;;;;;2.53;2.00;;;;;;;6.06;100.00;99502.38;4221835;27;20134;-73
2023/01/03 02:39:12;;;;;;;2.47;1.83;;;;;;;5.99;100.00;99502.84;4220979;27;20176;-74
2023/01/03 02:41:35;;;;;;;2.75;1.60;;;;;;;5.97;100.00;99502.38;4220467;27;20046;-73
2023/01/03 02:43:41;;;;;;;;;;;;;;;5.93;100.00;99497.81;4226215;27;20051;-73
2023/01/03 02:45:59;;;;;;;3.05;1.80;;;;;;;5.88;100.00;99501.53;4230916;27;19916;-73
2023/01/03 02:48:31;;;;;;;2.30;1.73;;;;;;;5.85;100.00;99507.63;4221548;27;20051;-73
2023/01/03 02:50:41;;;;;;;2.65;2.00;;;;;;;5.88;100.00;99501.53;4221076;27;20050;-73
2023/01/03 02:52:44;;;;;;;2.05;1.60;;;;;;;5.89;100.00;99497.66;4227161;27;20053;-74
2023/01/03 02:54:47;;;;;;;;;;;;;;;5.88;100.00;99505.06;4236788;27;20508;-73
2023/01/03 02:56:52;;;;;;;2.63;1.52;;;;;;;5.87;100.00;99508.94;4238170;27;20250;-73
2023/01/03 02:58:58;;;;;;;3.20;1.70;;;;;;;5.83;100.00;99496.19;4222951;27;20071;-73
2023/01/03 03:01:01;;;;;;;3.42;1.77;;;;;;;5.80;100.00;99503.13;4221402;27;20088;-73
2023/01/03 03:03:08;;;;;;;2.95;2.22;;;;;;;5.79;100.00;99503.44;4220190;27;20046;-73
2023/01/03 03:05:14;;;;;;;3.05;2.10;;;;;;;5.73;100.00;99510.22;4233872;27;20066;-73
2023/01/03 03:07:22;;;;;;;4.80;2.35;;;;;;;5.71;100.00;99505.06;4221631;27;20416;-73
2023/01/03 03:09:23;;;;;;;4.05;2.00;;;;;;;5.68;100.00;99502.13;4228374;27;20044;-73
2023/01/03 03:13:54;;;;;;;3.80;2.30;;;;;;;5.53;100.00;99500.63;4221722;27;20205;-73
2023/01/03 03:16:46;;;;;;;3.00;2.20;;;;;;;5.48;100.00;99503.56;4220706;27;20039;-73
2023/01/03 03:18:57;;;;;;;2.38;1.83;;;;;;;5.42;100.00;99493.84;4220371;27;20032;-73
2023/01/03 03:25:44;;;;;;;;;;;;;;;5.33;100.00;99502.88;4237676;27;20062;-73
2023/01/03 03:30:11;;;;;;;4.88;2.05;;;;;;;5.20;100.00;99503.78;4218851;27;20298;-73
2023/01/03 03:32:11;;;;;;;2.90;2.05;;;;;;;5.20;100.00;99502.97;4217699;27;20070;-73
2023/01/03 03:34:24;;;;;;;3.13;2.08;;;;;;;5.17;100.00;99504.41;4220746;27;20031;-74
2023/01/03 03:36:59;;;;;;;3.60;1.92;;;;;;;5.14;100.00;99509.75;4225824;27;20435;-73
2023/01/03 03:39:01;;;;;;;2.80;1.90;;;;;;;5.10;100.00;99516.97;4217571;27;20104;-73
2023/01/03 03:46:03;;;;;;;2.75;1.80;;;;;;;5.15;100.00;99528.63;4223067;27;20211;-74
2023/01/03 03:48:10;;;;;;;5.05;3.30;;;;;;;5.16;100.00;99527.50;4225306;27;20050;-73
2023/01/03 03:50:18;;;;;;;2.90;2.17;;;;;;;5.18;100.00;99535.41;4224011;27;20023;-74
2023/01/03 03:52:25;;;;;;;2.72;2.25;;;;;;;5.17;100.00;99534.59;4226850;27;20019;-73
2023/01/03 03:54:28;;;;;;;2.28;1.90;;;;;;;5.18;100.00;99543.63;4222501;27;20459;-73
2023/01/03 03:56:31;;;;;;;4.28;2.30;;;;;;;5.17;100.00;99545.56;4224814;27;20471;-73
2023/01/03 03:58:38;;;;;;;4.28;2.20;;;;;;;5.18;100.00;99544.44;4223753;27;20048;-73
2023/01/03 04:00:41;;;;;;;2.75;2.08;;;;;;;5.22;100.00;99545.44;4224601;27;20031;-74
2023/01/03 04:02:45;;;;;;;3.78;2.28;;;;;;;5.23;100.00;99551.75;4222459;27;20504;-74
2023/01/03 04:04:50;;;;;;;2.85;1.92;;;;;;;5.26;100.00;99548.34;4225430;27;20046;-73
2023/01/03 04:06:51;;;;;;;3.10;2.42;;;;;;;5.29;100.00;99562.22;4222787;27;20044;-73
2023/01/03 04:08:51;;;;;;;3.20;2.30;;;;;;;5.36;100.00;99561.78;4225337;27;20047;-73
2023/01/03 04:11:04;;;;;;;5.63;2.55;;;;;;;5.38;100.00;99562.28;4225381;27;20047;-74
2023/01/03 04:13:04;;;;;;;5.05;2.67;;;;;;;5.48;100.00;99563.94;4224806;27;20407;-73
2023/01/03 04:15:06;;;;;;;3.33;2.13;;;;;;;5.58;100.00;99560.91;4221127;27;20138;-73
2023/01/03 04:17:06;;;;;;;2.65;1.98;;;;;;;5.70;100.00;99566.56;4226643;27;20055;-73
2023/01/03 04:19:07;;;;;;;2.67;1.90;;;;;;;5.75;100.00;99560.13;4222354;27;20031;-73
2023/01/03 04:21:08;;;;;;;3.58;2.10;;;;;;;5.79;100.00;99550.13;4224744;27;20260;-73
2023/01/03 04:23:08;;;;;;;3.03;2.00;;;;;;;5.78;100.00;99552.06;4220960;27;20039;-73
2023/01/03 04:25:09;;;;;;;2.25;1.80;;;;;;;5.80;100.00;99551.75;4222430;27;20035;-73
2023/01/03 04:27:09;;;;;;;3.35;2.10;;;;;;;5.77;100.00;99552.38;4222400;27;20453;-73
2023/01/03 04:29:09;;;;;;;3.65;2.40;;;;;;;5.74;100.00;99547.53;4225976;27;20131;-73
2023/01/03 04:31:10;;;;;;;4.28;2.40;;;;;;;5.71;100.00;99559.97;4219135;27;20056;-73
2023/01/03 04:33:10;;;;;;;5.00;2.55;;;;;;;5.66;100.00;99565.59;4219141;27;20146;-73
2023/01/03 04:35:11;;;;;;;7.43;2.67;;;;;;;5.58;100.00;99556.22;4228076;27;20420;-73
2023/01/03 04:37:11;;;;;;;5.32;2.45;;;;;;;5.51;100.00;99557.81;4236361;27;20456;-73
2023/01/03 04:39:11;;;;;;;6.50;2.47;;;;;;;5.42;100.00;99557.78;4234373;27;20051;-73
2023/01/03 04:41:12;;;;;;;3.45;2.70;;;;;;;5.32;100.00;99567.09;4227122;27;20046;-73
2023/01/03 04:45:31;;;;;;;3.10;2.45;;;;;;;5.16;100.00;99563.16;4218350;27;20050;-73
2023/01/03 04:47:32;;;;;;;3.38;2.03;;;;;;;5.08;100.00;99561.19;4218723;27;20027;-73
2023/01/03 04:49:32;;;;;;;3.53;2.40;;;;;;;5.00;100.00;99550.97;4219463;27;20031;-73
2023/01/03 04:51:34;;;;;;;3.78;2.20;;;;;;;4.95;100.00;99551.09;4225337;27;20081;-73
2023/01/03 04:53:34;;;;;;;4.32;1.90;;;;;;;4.92;100.00;99563.53;4227818;27;20047;-74
2023/01/03 04:55:34;;;;;;;3.35;2.30;;;;;;;4.84;100.00;99564.28;4221312;27;20039;-73
2023/01/03 04:57:35;;;;;;;2.58;1.90;;;;;;;4.84;100.00;99564.28;4220331;27;20046;-73
2023/01/03 04:59:37;;;;;;;3.08;2.20;;;;;;;4.74;100.00;99557.13;4232481;27;20073;-73
2023/01/03 05:01:37;;;;;;;3.78;2.30;;;;;;;4.73;100.00;99569.22;4228778;27;20052;-73
2023/01/03 05:03:37;;;;;;;3.53;2.10;;;;;;;4.72;100.00;99567.59;4219090;27;20402;-73
2023/01/03 05:05:38;;;;;;;5.25;2.25;;;;;;;4.68;100.00;99572.09;4219115;27;20455;-73
2023/01/03 05:07:39;;;;;;;3.70;2.13;;;;;;;4.69;100.00;99575.63;4228915;27;20463;-73
2023/01/03 05:09:39;;;;;;;4.90;2.13;;;;;;;4.68;100.00;99571.28;4235534;27;20043;-73
2023/01/03 05:11:39;;;;;;;3.30;1.88;;;;;;;4.70;100.00;99578.06;4228927;27;20052;-73
2023/01/03 05:13:40;;;;;;;2.70;2.00;;;;;;;4.66;100.00;99576.25;4219033;27;20134;-73
2023/01/03 05:15:40;;;;;;;3.72;2.20;;;;;;;4.62;100.00;99578.00;4221388;27;20035;-73
2023/01/03 05:17:41;;;;;;;4.15;2.30;;;;;;;4.57;100.00;99578.13;4221136;27;20089;-73
2023/01/03 05:26:40;;;;;;;9.75;4.18;;;;;;;4.42;100.00;99596.56;4231062;27;20394;-73
2023/01/03 05:28:42;;;;;;;5.85;3.80;;;;;;;4.44;100.00;99602.53;4229140;27;20031;-73
2023/01/03 05:30:42;;;;;;;6.63;3.70;;;;;;;4.38;100.00;99592.81;4219773;27;20708;-73
2023/01/03 05:32:43;;;;;;;7.38;3.20;;;;;;;4.32;100.00;99596.81;4230669;27;20053;-73
2023/01/03 05:34:43;;;;;;;4.28;2.67;;;;;;;4.29;100.00;99610.28;4228972;27;20220;-73
2023/01/03 05:36:43;;;;;;;2.72;2.20;;;;;;;4.22;100.00;99606.06;4229318;27;20388;-73
2023/01/03 05:38:44;;;;;;;3.80;2.30;;;;;;;4.13;100.00;99607.91;4219920;27;20617;-73
2023/01/03 05:40:44;;;;;;;6.50;3.08;;;;;;;4.01;100.00;99604.09;4228971;27;20042;-73
2023/01/03 05:42:44;;;;;;;7.00;2.95;;;;;;;3.97;100.00;99608.53;4218966;27;20161;-73
2023/01/03 05:44:45;;;;;;;6.25;2.80;;;;;;;3.97;100.00;99609.34;4220322;27;20081;-73
2023/01/03 05:46:45;;;;;;;3.13;2.50;;;;;;;3.95;100.00;99606.09;4219015;27;20055;-73
2023/01/03 05:48:46;;;;;;;2.80;1.92;;;;;;;4.01;100.00;99612.28;4118746;27;20118;-73
2023/01/03 05:50:48;;;;;;;3.38;1.98;;;;;;;4.01;100.00;99613.09;4228100;27;20043;-73
2023/01/03 05:52:49;;;;;;;3.28;2.10;;;;;;;4.05;100.00;99611.34;4218943;27;20254;-73
2023/01/03 05:54:49;;;;;;;2.80;1.80;;;;;;;4.11;100.00;99606.59;4219598;27;20042;-73
2023/01/03 05:56:50;;;;;;;3.38;2.10;;;;;;;4.16;100.00;99609.22;4219711;27;20050;-73
2023/01/03 05:58:50;;;;;;;2.42;1.80;;;;;;;4.26;100.00;99614.47;4221678;27;20047;-73
2023/01/03 06:00:51;;;;;;;2.17;1.60;;;;;;;4.28;100.00;99617.69;4222896;27;20047;-73
2023/01/03 06:02:51;;;;;;;3.78;1.83;;;;;;;4.31;100.00;99614.38;4222467;27;20048;-73
2023/01/03 06:04:51;;;;;;;2.85;1.90;;;;;;;4.38;100.00;99619.41;4223017;27;20130;-73
2023/01/03 06:06:52;;;;;;;2.50;1.70;;;;;;;4.40;100.00;99619.91;4222764;27;20489;-73
2023/01/03 06:08:53;;;;;;;3.63;1.88;;;;;;;4.32;100.00;99610.50;4222510;27;20515;-73
2023/01/03 06:10:53;;;;;;;4.10;2.05;;;;;;;4.34;100.00;99613.72;4222566;27;20047;-73
2023/01/03 06:12:54;;;;;;;3.35;1.58;;;;;;;4.33;100.00;99614.84;4226323;27;20353;-73
2023/01/03 06:14:54;;;;;;;3.72;1.77;;;;;;;4.32;100.00;99609.69;4222707;27;20506;-73
2023/01/03 06:19:14;;;;;;;2.53;1.50;;;;;;;4.26;100.00;99619.13;4220579;27;20084;-73
2023/01/03 06:21:14;;;;;;;2.08;1.38;;;;;;;4.25;100.00;99623.00;4232774;27;20047;-73
2023/01/03 06:23:15;;;;;;;2.30;1.52;;;;;;;4.26;100.00;99624.63;4226036;27;20051;-73
2023/01/03 06:25:15;;;;;;;1.60;1.50;;;;;;;4.27;100.00;99620.75;4221452;27;20097;-73
2023/01/03 06:27:16;;;;;;;2.97;1.50;;;;;;;4.22;100.00;99619.75;4222488;27;20067;-73
2023/01/03 06:29:16;;;;;;;2.42;1.58;;;;;;;4.23;100.00;99620.56;4229733;27;20475;-73
2023/01/03 06:31:17;;;;;;;1.85;1.33;;;;;;;4.25;100.00;99617.53;4231224;27;20055;-73
2023/01/03 06:33:18;;;;;;;2.20;1.30;;;;;;;4.16;100.00;99614.69;4233967;27;20078;-73
2023/01/03 06:35:18;;;;;;;3.95;1.50;;;;;;;4.10;100.00;99610.44;4221758;27;20047;-73
2023/01/03 06:37:19;;;;;;;4.50;2.08;;;;;;;3.91;100.00;99608.66;4222160;27;20684;-73
2023/01/03 06:39:20;;;;;;;2.88;2.20;;;;;;;3.80;100.00;99617.38;4222045;27;20039;-73
2023/01/03 06:41:20;;;;;;;5.38;2.03;;;;;;;3.61;100.00;99614.75;4229597;27;20099;-73
2023/01/03 06:43:20;;;;;;;3.20;1.80;;;;;;;3.46;100.00;99609.59;4232191;27;20039;-73
2023/01/03 06:54:37;;;;;;;2.40;1.60;;;;;;;3.91;100.00;99627.84;4236568;27;20352;-73
2023/01/03 06:56:37;;;;;;;1.85;1.30;;;;;;;3.98;100.00;99621.94;4233401;27;20096;-73
2023/01/03 06:58:38;;;;;;;2.65;1.30;;;;;;;4.05;100.00;99625.06;4221901;27;20394;-73
2023/01/03 07:00:42;;;;;;;2.28;1.20;;;;;;;4.03;100.00;99626.47;4221478;27;20166;-73
2023/01/03 07:02:43;;;;;;;1.65;1.20;;;;;;;4.02;100.00;99633.88;4232072;27;20418;-73
2023/01/03 07:04:43;;;;;;;2.38;1.50;;;;;;;3.97;100.00;99639.47;4230286;27;20036;-73
2023/01/03 07:06:44;;;;;;;2.30;1.60;;;;;;;3.91;100.00;99636.03;4223280;27;20070;-73
2023/01/03 07:08:44;;;;;;;2.28;1.13;;;;;;;3.84;100.00;99643.03;4234522;27;20031;-73
2023/01/03 07:10:45;;;;;;;1.70;1.42;;;;;;;3.69;100.00;99646.09;4221681;27;20076;-73
2023/01/03 07:15:04;;;;;;;2.83;1.80;;;;;;;3.48;100.00;99645.69;4221947;27;20046;-73
2023/01/03 07:17:04;;;;;;;2.30;1.45;;;;;;;3.42;100.00;99652.34;4221609;27;20123;-73
2023/01/03 07:19:07;;;;;;;1.85;1.60;;;;;;;3.31;100.00;99658.03;4221760;27;20126;-73
2023/01/03 07:21:07;;;;;;;2.50;1.98;;;;;;;3.19;100.00;99660.41;4221296;27;20058;-73
2023/01/03 07:23:08;;;;;;;1.75;1.50;;;;;;;3.07;100.00;99663.63;4220753;27;20382;-73
2023/01/03 07:25:08;;;;;;;6.50;1.80;;;;;;;2.98;100.00;99670.91;4221255;27;20039;-73
2023/01/03 07:27:09;;;;;;;5.18;2.13;;;;;;;2.85;100.00;99668.09;4221156;27;20071;-73
2023/01/03 07:29:09;;;;;;;3.53;2.30;;;;;;;2.84;100.00;99670.03;4221120;27;20467;-73
2023/01/03 07:31:10;;;;;;;4.32;2.03;;;;;;;2.75;100.00;99667.16;4221688;27;20044;-73
2023/01/03 07:33:14;;;;;;;8.65;2.20;;;;;;;2.72;100.00;99675.13;4234590;27;20085;-73
2023/01/03 07:35:14;;;;;;;2.95;1.92;;;;;;;2.69;100.00;99668.34;4232350;27;20035;-73
2023/01/03 07:37:15;;;;;;;2.83;1.98;;;;;;;2.67;100.00;99675.22;4221852;27;20070;-73
2023/01/03 07:39:15;;;;;;;6.13;2.00;;;;;;;2.58;100.00;99679.75;4236682;27;20035;-73
2023/01/03 07:41:16;;;;;;;2.78;1.80;;;;;;;2.59;100.00;99682.16;4236819;27;20296;-73
2023/01/03 07:45:39;;;;;;;6.95;2.75;;;;;;;2.49;100.00;99699.53;4221077;27;20490;-73
2023/01/03 07:47:43;;;;;;;9.82;3.60;;;;;;;2.44;100.00;99704.25;4226147;27;20039;-73
2023/01/03 07:49:44;;;;;;;8.50;3.83;;;;;;;2.38;100.00;99700.75;4236112;27;20534;-73
2023/01/03 07:51:44;;;;;;;7.47;4.78;;;;;;;2.46;100.00;99708.28;4235791;27;20484;-73
2023/01/03 07:53:48;;;;;;;12.65;5.45;;;;;;;2.57;100.00;99703.53;4236117;27;20047;-73
2023/01/03 07:55:48;;;;;;;22.73;7.63;;;;;;;2.59;100.00;99711.41;4237377;27;20421;-73
2023/01/03 07:57:48;;;;;;;15.10;7.05;;;;;;;2.67;100.00;99705.28;4235346;27;20095;-73
2023/01/03 07:59:49;;;;;;;15.60;6.15;;;;;;;2.61;100.00;99707.28;4231512;27;20380;-73
2023/01/03 08:01:49;;;;;;;13.68;6.30;;;;;;;2.63;100.00;99706.97;4220884;27;20081;-73
2023/01/03 08:03:50;;;;;;;12.80;5.65;;;;;;;2.67;100.00;99716.22;4220298;27;20051;-73
2023/01/03 08:05:50;;;;;;;14.95;5.75;;;;;;;2.65;100.00;99723.88;4224466;27;20074;-73
2023/01/03 08:07:51;;;;;;;11.73;6.05;;;;;;;2.68;100.00;99720.56;4236877;27;20080;-73
2023/01/03 08:14:29;;;;;;;11.55;5.90;;;;;;;2.56;100.00;99726.44;4220399;27;20053;-73
2023/01/03 08:16:30;;;;;;;14.75;6.68;;;;;;;2.56;100.00;99733.84;4220530;27;20131;-73
2023/01/03 08:18:30;;;;;;;14.88;6.20;;;;;;;2.55;100.00;99733.03;4220298;27;20031;-73
2023/01/03 08:20:30;;;;;;;9.85;5.82;;;;;;;2.52;100.00;99728.97;4220615;27;20047;-73
2023/01/03 08:22:32;;;;;;;11.23;6.20;;;;;;;2.53;100.00;99733.34;4218944;27;20305;-73
2023/01/03 08:24:32;;;;;;;8.18;4.90;;;;;;;2.53;100.00;99724.31;4229424;27;20061;-73
2023/01/03 08:26:32;;;;;;;7.32;4.55;;;;;;;2.64;100.00;99731.25;4234838;27;20035;-73
2023/01/03 08:28:33;;;;;;;6.97;3.88;;;;;;;2.89;100.00;99738.28;4235276;27;20071;-73
2023/01/03 08:30:39;;;;;;;4.68;3.20;;;;;;;3.05;100.00;99730.66;4236307;27;20073;-73
2023/01/03 08:32:39;;;;;;;4.90;2.33;;;;;;;3.16;100.00;99729.41;4219401;27;20164;-73
2023/01/03 08:34:43;;;;;;;4.30;2.30;;;;;;;3.31;100.00;99731.03;4220048;27;20690;-73
2023/01/03 08:36:49;;;;;;;5.32;2.50;;;;;;;3.47;100.00;99729.66;4220468;27;20083;-73
2023/01/03 08:38:59;;;;;;;3.97;2.42;;;;;;;3.62;100.00;99723.91;4220510;27;20101;-73
2023/01/03 08:41:02;;;;;;;3.13;2.30;;;;;;;3.71;100.00;99721.28;4228632;27;20324;-73
2023/01/03 08:43:04;;;;;;;3.40;1.95;;;;;;;3.77;100.00;99725.56;4235357;27;20494;-73
2023/01/03 08:45:10;;;;;;;3.03;2.30;;;;;;;3.91;100.00;99718.19;4219837;27;20039;-73
2023/01/03 08:47:12;;;;;;;2.85;1.95;;;;;;;4.03;100.00;99727.81;4220341;27;20226;-73
2023/01/03 08:49:13;;;;;;;2.15;1.55;;;;;;;4.14;100.00;99723.78;4220152;27;20055;-73
2023/01/03 08:51:13;;;;;;;2.42;1.85;;;;;;;4.23;100.00;99722.75;4220245;27;20051;-73
2023/01/03 08:53:13;;;;;;;1.60;1.23;;;;;;;4.26;100.00;99724.06;4219446;27;20044;-73
2023/01/03 08:55:14;;;;;;;2.50;1.70;;;;;;;4.36;100.00;99729.31;4219651;27;20053;-72
2023/01/03 08:57:14;;;;;;;3.58;1.50;;;;;;;4.44;100.00;99734.06;4219845;27;20035;-72
2023/01/03 08:59:14;;;;;;;1.88;1.30;;;;;;;4.53;100.00;99736.09;4220334;27;20316;-72
2023/01/03 09:01:16;;;;;;;8.88;4.25;;;;;;;4.63;100.00;99738.59;4232196;27;20039;-73
2023/01/03 09:03:16;;;;;;;9.68;4.00;;;;;;;4.65;100.00;99741.88;4225994;27;20487;-73
2023/01/03 09:05:17;;;;;;;5.70;2.80;;;;;;;4.68;100.00;99739.31;4219871;27;20047;-72
2023/01/03 09:07:17;;;;;;;6.72;3.78;;;;;;;4.71;100.00;99738.69;4219836;27;20035;-73
2023/01/03 09:09:18;;;;;;;6.25;2.35;;;;;;;4.77;100.00;99740.19;4220173;27;20047;-73
2023/01/03 09:11:18;;;;;;;5.90;2.78;;;;;;;4.83;100.00;99746.38;4219897;27;20051;-73
2023/01/03 09:13:18;;;;;;;3.88;2.33;;;;;;;4.91;100.00;99737.44;4219065;27;20096;-73
2023/01/03 09:15:19;;;;;;;7.30;2.85;;;;;;;4.92;100.00;99744.53;4226275;27;20054;-73
2023/01/03 09:17:20;;;;;;;4.35;2.58;;;;;;;4.96;100.00;99747.44;4219370;27;20471;-73
2023/01/03 09:19:20;;;;;;;5.75;2.22;;;;;;;5.05;100.00;99751.91;4219957;27;20491;-73
2023/01/03 09:21:21;;;;;;;3.88;2.28;;;;;;;5.12;99.80;99748.72;4219161;27;20479;-73
2023/01/03 09:23:21;;;;;;;3.60;1.77;;;;;;;5.18;98.28;99752.16;4218688;27;20471;-73
2023/01/03 09:25:22;;;;;;;3.40;2.20;;;;;;;5.28;98.52;99754.66;4219843;27;20047;-73
2023/01/03 09:27:22;;;;;;;3.42;2.30;;;;;;;5.26;98.73;99757.69;4219242;27;20122;-73
2023/01/03 09:29:22;;;;;;;4.07;2.58;;;;;;;5.24;99.09;99759.16;4219747;27;20039;-73
2023/01/03 09:31:23;;;;;;;6.97;2.95;;;;;;;5.19;99.68;99756.50;4219720;27;20043;-72
2023/01/03 09:33:23;;;;;;;7.20;2.17;;;;;;;5.24;98.72;99753.66;4218965;27;20089;-72
2023/01/03 09:35:24;;;;;;;4.10;2.72;;;;;;;5.30;99.08;99757.91;4219209;27;20047;-72
2023/01/03 09:37:24;;;;;;;3.45;1.90;;;;;;;5.37;98.07;99750.03;4232931;27;20058;-72
2023/01/03 09:39:24;;;;;;;2.80;1.83;;;;;;;5.41;97.52;99751.03;4219702;27;20040;-73
2023/01/03 09:41:26;;;;;;;1.77;1.20;;;;;;;5.43;98.18;99767.19;4219238;27;20047;-73
2023/01/03 09:43:35;;;;;;;4.15;1.70;;;;;;;5.42;97.83;99757.34;4218496;27;20047;-73
2023/01/03 09:45:38;;;;;;;4.05;1.52;;;;;;;5.43;98.07;99764.44;4219591;27;20112;-73
2023/01/03 09:47:38;;;;;;;;;;;;;;;5.43;98.78;99757.00;4219926;27;20027;-73
2023/01/03 09:49:39;;;;;;;2.55;1.38;;;;;;;5.51;97.79;99753.50;4229854;27;19964;-72
2023/01/03 10:04:13;;;;;;;2.75;1.60;;;;;;;5.81;95.36;99757.41;4231945;27;20061;-73
2023/01/03 10:06:51;;;;;;;3.80;1.67;;;;;;;5.79;95.29;99762.41;4207838;27;20048;-72
2023/01/03 10:08:54;;;;;;;1.88;1.42;;;;;;;5.82;94.83;99759.03;4219046;27;20059;-73
2023/01/03 10:11:08;;;;;;;3.40;2.00;;;;;;;5.87;94.63;99752.56;4219436;27;20039;-73
2023/01/03 10:13:23;;;;;;;8.48;3.17;;;;;;;5.87;93.84;99747.88;4218326;27;20131;-73
2023/01/03 10:15:44;;;;;;;10.00;4.60;;;;;;;5.90;93.81;99751.97;4229885;27;20046;-73
2023/01/03 10:18:29;;;;;;;11.25;4.65;;;;;;;5.87;94.41;99758.06;4228756;27;20194;-72
2023/01/03 10:20:47;;;;;;;3.85;2.03;;;;;;;5.90;93.81;99754.72;4162171;28;20099;-73
2023/01/03 10:22:49;;;;;;;5.13;2.30;;;;;;;5.92;93.25;99755.22;4165666;28;20446;-73
2023/01/03 10:25:14;;;;;;;4.65;2.03;;;;;;;5.94;93.39;99752.16;4171122;28;20068;-73
2023/01/03 10:27:25;;;;;;;3.85;1.67;;;;;;;6.03;92.25;99755.75;4218650;27;20040;-73
2023/01/03 10:29:26;;;;;;;3.22;1.80;;;;;;;6.04;91.83;99747.22;4227394;27;20526;-72
2023/01/03 10:31:48;;;;;;;4.20;1.70;;;;;;;6.03;92.13;99753.81;4234399;27;20047;-73
2023/01/03 10:33:49;;;;;;;5.07;1.88;;;;;;;6.04;92.14;99746.38;4233617;27;20048;-73
2023/01/03 10:35:50;;;;;;;3.88;1.35;;;;;;;6.07;92.32;99745.75;4235360;27;20043;-73
2023/01/03 10:37:53;;;;;;;2.78;1.70;;;;;;;6.07;91.79;99748.50;4233359;27;20039;-73
2023/01/03 10:40:04;;;;;;;3.30;1.30;;;;;;;6.11;90.75;99742.03;4235290;27;20055;-73
2023/01/03 10:42:04;;;;;;;1.23;1.10;;;;;;;6.19;89.95;99741.25;4218771;27;20047;-73
2023/01/03 10:44:04;;;;;;;3.08;1.40;;;;;;;6.22;89.67;99739.84;4219621;27;20499;-72